sensor_id;sensor_type;location;lat;lon;timestamp;temperature;humidity
5027;DHT22;2532;52.480;13.354;2023-04-04T04:01:44;2.10;88.00
5027;DHT22;2532;52.480;13.354;2023-04-04T04:04:11;2.10;88.10
5027;DHT22;2532;52.480;13.354;2023-04-04T04:06:38;2.00;88.20
5027;DHT22;2532;52.480;13.354;2023-04-04T04:09:05;2.10;88.20
5027;DHT22;2532;52.480;13.354;2023-04-04T04:11:32;2.10;88.30
5027;DHT22;2532;52.480;13.354;2023-04-04T04:13:59;2.00;88.10
5027;DHT22;2532;52.480;13.354;2023-04-04T04:16:26;2.00;88.10
5027;DHT22;2532;52.480;13.354;2023-04-04T04:18:55;2.00;88.10
5027;DHT22;2532;52.480;13.354;2023-04-04T04:21:22;2.00;88.20
5027;DHT22;2532;52.480;13.354;2023-04-04T04:23:50;2.00;88.30
5027;DHT22;2532;52.480;13.354;2023-04-04T04:26:17;2.00;88.40
5027;DHT22;2532;52.480;13.354;2023-04-04T04:28:44;2.00;88.50
5027;DHT22;2532;52.480;13.354;2023-04-04T04:31:12;2.00;88.50
5027;DHT22;2532;52.480;13.354;2023-04-04T04:33:40;1.90;88.50
5027;DHT22;2532;52.480;13.354;2023-04-04T04:36:08;1.90;88.60
5027;DHT22;2532;52.480;13.354;2023-04-04T04:38:35;1.90;88.80
5027;DHT22;2532;52.480;13.354;2023-04-04T04:41:02;2.00;88.90
5027;DHT22;2532;52.480;13.354;2023-04-04T04:43:29;1.90;88.80
5027;DHT22;2532;52.480;13.354;2023-04-04T04:45:56;2.00;88.80
5027;DHT22;2532;52.480;13.354;2023-04-04T04:48:23;1.90;88.40
5027;DHT22;2532;52.480;13.354;2023-04-04T04:50:50;2.00;88.60
5027;DHT22;2532;52.480;13.354;2023-04-04T04:53:19;2.00;88.80
5027;DHT22;2532;52.480;13.354;2023-04-04T04:55:46;2.00;88.70
5027;DHT22;2532;52.480;13.354;2023-04-04T04:58:13;2.00;88.50
5027;DHT22;2532;52.480;13.354;2023-04-04T05:00:42;2.10;88.70
5027;DHT22;2532;52.480;13.354;2023-04-04T05:03:09;2.00;88.70
5027;DHT22;2532;52.480;13.354;2023-04-04T05:05:36;2.10;88.80
5027;DHT22;2532;52.480;13.354;2023-04-04T05:08:04;2.10;88.70
5027;DHT22;2532;52.480;13.354;2023-04-04T05:10:33;2.10;88.90
5027;DHT22;2532;52.480;13.354;2023-04-04T05:13:00;2.10;89.60
5027;DHT22;2532;52.480;13.354;2023-04-04T05:15:27;2.00;88.70
5027;DHT22;2532;52.480;13.354;2023-04-04T05:17:54;2.00;88.70
5027;DHT22;2532;52.480;13.354;2023-04-04T05:20:21;2.10;88.80
5027;DHT22;2532;52.480;13.354;2023-04-04T05:22:48;2.00;88.90
5027;DHT22;2532;52.480;13.354;2023-04-04T05:25:16;2.00;89.00
5027;DHT22;2532;52.480;13.354;2023-04-04T05:27:47;1.90;89.10
5027;DHT22;2532;52.480;13.354;2023-04-04T05:30:14;2.00;89.10
5027;DHT22;2532;52.480;13.354;2023-04-04T05:32:43;2.00;89.30
5027;DHT22;2532;52.480;13.354;2023-04-04T05:35:11;2.00;89.30
5027;DHT22;2532;52.480;13.354;2023-04-04T05:37:38;2.00;89.00
5027;DHT22;2532;52.480;13.354;2023-04-04T05:40:07;2.00;89.10
5027;DHT22;2532;52.480;13.354;2023-04-04T05:42:34;2.00;89.10
5027;DHT22;2532;52.480;13.354;2023-04-04T05:45:03;2.00;89.10
5027;DHT22;2532;52.480;13.354;2023-04-04T05:47:30;2.00;89.00
5027;DHT22;2532;52.480;13.354;2023-04-04T05:49:57;2.00;89.60
5027;DHT22;2532;52.480;13.354;2023-04-04T05:52:24;2.00;89.00
5027;DHT22;2532;52.480;13.354;2023-04-04T05:54:51;2.00;88.90
5027;DHT22;2532;52.480;13.354;2023-04-04T05:57:18;2.00;89.00
5027;DHT22;2532;52.480;13.354;2023-04-04T05:59:45;2.00;88.90
5027;DHT22;2532;52.480;13.354;2023-04-04T06:02:13;2.00;89.10
5027;DHT22;2532;52.480;13.354;2023-04-04T06:04:40;2.00;89.30
5027;DHT22;2532;52.480;13.354;2023-04-04T06:07:13;2.00;89.20
5027;DHT22;2532;52.480;13.354;2023-04-04T06:09:40;2.00;89.70
5027;DHT22;2532;52.480;13.354;2023-04-04T06:12:08;2.10;88.80
5027;DHT22;2532;52.480;13.354;2023-04-04T06:14:36;2.10;88.70
5027;DHT22;2532;52.480;13.354;2023-04-04T06:17:03;2.10;88.70
5027;DHT22;2532;52.480;13.354;2023-04-04T06:19:32;2.20;88.90
5027;DHT22;2532;52.480;13.354;2023-04-04T06:21:59;2.30;88.90
5027;DHT22;2532;52.480;13.354;2023-04-04T06:24:26;2.30;88.60
5027;DHT22;2532;52.480;13.354;2023-04-04T06:26:53;2.40;88.30
5027;DHT22;2532;52.480;13.354;2023-04-04T06:29:20;2.50;88.30
5027;DHT22;2532;52.480;13.354;2023-04-04T06:31:48;2.60;87.80
5027;DHT22;2532;52.480;13.354;2023-04-04T06:34:15;2.60;87.70
5027;DHT22;2532;52.480;13.354;2023-04-04T06:36:43;2.60;87.30
5027;DHT22;2532;52.480;13.354;2023-04-04T06:39:10;2.70;87.10
5027;DHT22;2532;52.480;13.354;2023-04-04T06:41:37;2.70;86.80
5027;DHT22;2532;52.480;13.354;2023-04-04T06:44:04;2.70;87.40
5027;DHT22;2532;52.480;13.354;2023-04-04T06:46:31;2.80;86.70
5027;DHT22;2532;52.480;13.354;2023-04-04T06:48:58;2.80;86.20
5027;DHT22;2532;52.480;13.354;2023-04-04T06:51:25;2.80;86.20
5027;DHT22;2532;52.480;13.354;2023-04-04T06:53:54;2.80;85.90
5027;DHT22;2532;52.480;13.354;2023-04-04T06:56:22;2.90;85.50
5027;DHT22;2532;52.480;13.354;2023-04-04T06:58:49;2.90;85.60
5027;DHT22;2532;52.480;13.354;2023-04-04T07:01:16;3.00;85.80
5027;DHT22;2532;52.480;13.354;2023-04-04T07:03:43;3.10;85.50
5027;DHT22;2532;52.480;13.354;2023-04-04T07:06:11;3.20;85.10
5027;DHT22;2532;52.480;13.354;2023-04-04T07:08:41;3.30;85.10
5027;DHT22;2532;52.480;13.354;2023-04-04T07:11:12;3.40;84.30
5027;DHT22;2532;52.480;13.354;2023-04-04T07:13:41;3.50;83.90
5027;DHT22;2532;52.480;13.354;2023-04-04T07:16:08;3.50;83.80
5027;DHT22;2532;52.480;13.354;2023-04-04T07:18:36;3.60;83.70
5027;DHT22;2532;52.480;13.354;2023-04-04T07:21:03;3.70;83.20
5027;DHT22;2532;52.480;13.354;2023-04-04T07:23:30;3.70;83.80
5027;DHT22;2532;52.480;13.354;2023-04-04T07:25:57;3.70;83.20
5027;DHT22;2532;52.480;13.354;2023-04-04T07:28:28;3.70;82.90
5027;DHT22;2532;52.480;13.354;2023-04-04T07:30:58;3.70;82.80
5027;DHT22;2532;52.480;13.354;2023-04-04T07:33:26;3.70;82.80
5027;DHT22;2532;52.480;13.354;2023-04-04T07:35:53;3.80;82.80
5027;DHT22;2532;52.480;13.354;2023-04-04T07:38:23;3.80;82.20
5027;DHT22;2532;52.480;13.354;2023-04-04T07:40:49;3.70;82.10
5027;DHT22;2532;52.480;13.354;2023-04-04T07:43:17;3.70;82.00
5027;DHT22;2532;52.480;13.354;2023-04-04T07:45:45;3.70;82.00
5027;DHT22;2532;52.480;13.354;2023-04-04T07:48:12;3.80;82.10
5027;DHT22;2532;52.480;13.354;2023-04-04T07:50:39;3.80;82.80
5027;DHT22;2532;52.480;13.354;2023-04-04T07:53:06;3.80;82.60
5027;DHT22;2532;52.480;13.354;2023-04-04T07:55:33;3.90;83.30
5027;DHT22;2532;52.480;13.354;2023-04-04T07:58:00;4.00;81.80
5027;DHT22;2532;52.480;13.354;2023-04-04T08:00:27;4.00;80.90
5027;DHT22;2532;52.480;13.354;2023-04-04T08:02:56;4.10;80.60
5027;DHT22;2532;52.480;13.354;2023-04-04T08:05:25;4.10;81.90
5027;DHT22;2532;52.480;13.354;2023-04-04T08:07:52;4.20;82.60
5027;DHT22;2532;52.480;13.354;2023-04-04T08:10:19;4.20;80.50
5027;DHT22;2532;52.480;13.354;2023-04-04T08:12:47;4.30;80.00
5027;DHT22;2532;52.480;13.354;2023-04-04T08:15:14;4.30;79.40
5027;DHT22;2532;52.480;13.354;2023-04-04T08:17:41;4.40;80.00
5027;DHT22;2532;52.480;13.354;2023-04-04T08:20:11;4.40;79.70
5027;DHT22;2532;52.480;13.354;2023-04-04T08:22:39;4.50;80.60
5027;DHT22;2532;52.480;13.354;2023-04-04T08:25:07;4.50;81.00
5027;DHT22;2532;52.480;13.354;2023-04-04T08:27:37;4.60;79.20
5027;DHT22;2532;52.480;13.354;2023-04-04T08:30:06;4.70;77.60
5027;DHT22;2532;52.480;13.354;2023-04-04T08:32:33;4.80;76.50
5027;DHT22;2532;52.480;13.354;2023-04-04T08:35:01;4.80;76.10
5027;DHT22;2532;52.480;13.354;2023-04-04T08:37:29;4.80;76.60
5027;DHT22;2532;52.480;13.354;2023-04-04T08:39:56;4.90;76.40
5027;DHT22;2532;52.480;13.354;2023-04-04T08:42:24;5.00;76.40
5027;DHT22;2532;52.480;13.354;2023-04-04T08:44:53;5.10;76.60
5027;DHT22;2532;52.480;13.354;2023-04-04T08:47:23;5.20;75.00
5027;DHT22;2532;52.480;13.354;2023-04-04T08:49:52;5.40;76.10
5027;DHT22;2532;52.480;13.354;2023-04-04T08:52:21;5.50;74.40
5027;DHT22;2532;52.480;13.354;2023-04-04T08:54:52;5.40;73.30
5027;DHT22;2532;52.480;13.354;2023-04-04T08:57:21;5.50;73.00
5027;DHT22;2532;52.480;13.354;2023-04-04T08:59:48;5.50;73.40
5027;DHT22;2532;52.480;13.354;2023-04-04T09:02:22;5.60;73.10
5027;DHT22;2532;52.480;13.354;2023-04-04T09:04:53;5.50;71.60
5027;DHT22;2532;52.480;13.354;2023-04-04T09:07:21;5.50;71.90
5027;DHT22;2532;52.480;13.354;2023-04-04T09:09:59;5.40;71.80
5027;DHT22;2532;52.480;13.354;2023-04-04T09:12:28;5.40;72.30
5027;DHT22;2532;52.480;13.354;2023-04-04T09:14:58;5.40;72.00
5027;DHT22;2532;52.480;13.354;2023-04-04T09:17:26;5.40;72.30
5027;DHT22;2532;52.480;13.354;2023-04-04T09:19:53;5.50;72.00
5027;DHT22;2532;52.480;13.354;2023-04-04T09:22:20;5.60;71.00
5027;DHT22;2532;52.480;13.354;2023-04-04T09:24:47;5.70;70.10
5027;DHT22;2532;52.480;13.354;2023-04-04T09:27:18;5.80;70.10
5027;DHT22;2532;52.480;13.354;2023-04-04T09:29:45;5.80;70.10
5027;DHT22;2532;52.480;13.354;2023-04-04T09:32:13;6.00;69.60
5027;DHT22;2532;52.480;13.354;2023-04-04T09:34:41;6.10;68.50
5027;DHT22;2532;52.480;13.354;2023-04-04T09:37:09;6.00;68.40
5027;DHT22;2532;52.480;13.354;2023-04-04T09:39:39;6.00;68.10
5027;DHT22;2532;52.480;13.354;2023-04-04T09:42:06;5.90;68.50
5027;DHT22;2532;52.480;13.354;2023-04-04T09:44:36;5.80;68.60
5027;DHT22;2532;52.480;13.354;2023-04-04T09:47:22;5.80;68.60
5027;DHT22;2532;52.480;13.354;2023-04-04T09:49:49;5.80;68.50
5027;DHT22;2532;52.480;13.354;2023-04-04T09:52:20;5.90;68.80
5027;DHT22;2532;52.480;13.354;2023-04-04T09:54:54;6.00;68.60
5027;DHT22;2532;52.480;13.354;2023-04-04T09:57:23;6.10;67.80
5027;DHT22;2532;52.480;13.354;2023-04-04T09:59:51;6.20;66.50
5027;DHT22;2532;52.480;13.354;2023-04-04T10:02:19;6.20;66.10
5027;DHT22;2532;52.480;13.354;2023-04-04T10:04:46;6.20;65.80
5027;DHT22;2532;52.480;13.354;2023-04-04T10:07:13;6.20;65.80
5027;DHT22;2532;52.480;13.354;2023-04-04T10:09:41;6.30;65.50
5027;DHT22;2532;52.480;13.354;2023-04-04T10:12:09;6.30;65.80
5027;DHT22;2532;52.480;13.354;2023-04-04T10:14:36;6.40;65.10
5027;DHT22;2532;52.480;13.354;2023-04-04T10:17:08;6.30;65.70
5027;DHT22;2532;52.480;13.354;2023-04-04T10:19:36;6.30;65.80
5027;DHT22;2532;52.480;13.354;2023-04-04T10:22:04;6.30;66.90
5027;DHT22;2532;52.480;13.354;2023-04-04T10:24:31;6.30;66.30
5027;DHT22;2532;52.480;13.354;2023-04-04T10:26:58;6.40;66.80
5027;DHT22;2532;52.480;13.354;2023-04-04T10:29:25;6.50;65.00
5027;DHT22;2532;52.480;13.354;2023-04-04T10:31:58;6.70;65.00
5027;DHT22;2532;52.480;13.354;2023-04-04T10:34:32;6.80;65.20
5027;DHT22;2532;52.480;13.354;2023-04-04T10:37:07;7.00;65.00
5027;DHT22;2532;52.480;13.354;2023-04-04T10:39:40;7.10;62.10
5027;DHT22;2532;52.480;13.354;2023-04-04T10:42:15;7.10;61.20
5027;DHT22;2532;52.480;13.354;2023-04-04T10:44:44;7.10;61.90
5027;DHT22;2532;52.480;13.354;2023-04-04T10:47:14;7.10;62.10
5027;DHT22;2532;52.480;13.354;2023-04-04T10:49:45;7.00;61.60
5027;DHT22;2532;52.480;13.354;2023-04-04T10:52:14;6.90;61.50
5027;DHT22;2532;52.480;13.354;2023-04-04T10:54:42;6.90;60.10
5027;DHT22;2532;52.480;13.354;2023-04-04T10:57:10;6.80;59.90
5027;DHT22;2532;52.480;13.354;2023-04-04T10:59:56;6.80;60.30
5027;DHT22;2532;52.480;13.354;2023-04-04T11:02:43;6.70;59.80
5027;DHT22;2532;52.480;13.354;2023-04-04T11:05:16;6.80;60.10
5027;DHT22;2532;52.480;13.354;2023-04-04T11:07:44;6.80;59.30
5027;DHT22;2532;52.480;13.354;2023-04-04T11:10:15;6.80;59.30
5027;DHT22;2532;52.480;13.354;2023-04-04T11:12:51;6.80;59.80
5027;DHT22;2532;52.480;13.354;2023-04-04T11:15:21;6.80;59.50
5027;DHT22;2532;52.480;13.354;2023-04-04T11:17:54;6.90;59.40
5027;DHT22;2532;52.480;13.354;2023-04-04T11:20:27;7.00;58.50
5027;DHT22;2532;52.480;13.354;2023-04-04T11:23:04;7.10;57.70
5027;DHT22;2532;52.480;13.354;2023-04-04T11:25:36;7.10;57.70
5027;DHT22;2532;52.480;13.354;2023-04-04T11:28:05;7.20;57.50
5027;DHT22;2532;52.480;13.354;2023-04-04T11:30:37;7.30;57.70
5027;DHT22;2532;52.480;13.354;2023-04-04T11:33:10;7.40;57.60
5027;DHT22;2532;52.480;13.354;2023-04-04T11:35:45;7.40;57.30
5027;DHT22;2532;52.480;13.354;2023-04-04T11:38:15;7.40;56.30
5027;DHT22;2532;52.480;13.354;2023-04-04T11:40:52;7.50;56.20
5027;DHT22;2532;52.480;13.354;2023-04-04T11:43:19;7.40;55.50
5027;DHT22;2532;52.480;13.354;2023-04-04T11:45:47;7.50;55.90
5027;DHT22;2532;52.480;13.354;2023-04-04T11:48:15;7.40;55.20
5027;DHT22;2532;52.480;13.354;2023-04-04T11:50:46;7.40;55.00
5027;DHT22;2532;52.480;13.354;2023-04-04T11:53:16;7.40;55.00
5027;DHT22;2532;52.480;13.354;2023-04-04T11:55:46;7.50;54.80
5027;DHT22;2532;52.480;13.354;2023-04-04T11:58:15;7.50;54.70
5027;DHT22;2532;52.480;13.354;2023-04-04T12:00:43;7.70;54.60
5027;DHT22;2532;52.480;13.354;2023-04-04T12:03:11;7.70;55.00
5027;DHT22;2532;52.480;13.354;2023-04-04T12:05:39;7.70;54.80
5027;DHT22;2532;52.480;13.354;2023-04-04T12:08:09;7.70;54.80
5027;DHT22;2532;52.480;13.354;2023-04-04T12:10:38;7.60;54.30
5027;DHT22;2532;52.480;13.354;2023-04-04T12:13:06;7.60;53.00
5027;DHT22;2532;52.480;13.354;2023-04-04T12:15:34;7.60;53.00
5027;DHT22;2532;52.480;13.354;2023-04-04T12:18:02;7.60;52.80
5027;DHT22;2532;52.480;13.354;2023-04-04T12:20:29;7.70;53.30
5027;DHT22;2532;52.480;13.354;2023-04-04T12:22:59;7.80;55.20
5027;DHT22;2532;52.480;13.354;2023-04-04T12:25:28;7.90;54.90
5027;DHT22;2532;52.480;13.354;2023-04-04T12:27:59;7.90;54.90
5027;DHT22;2532;52.480;13.354;2023-04-04T12:30:28;7.80;54.60
5027;DHT22;2532;52.480;13.354;2023-04-04T12:32:55;7.90;55.20
5027;DHT22;2532;52.480;13.354;2023-04-04T12:35:22;7.80;54.60
5027;DHT22;2532;52.480;13.354;2023-04-04T12:38:15;7.80;54.70
5027;DHT22;2532;52.480;13.354;2023-04-04T12:40:43;7.80;54.60
5027;DHT22;2532;52.480;13.354;2023-04-04T12:43:15;7.90;55.20
5027;DHT22;2532;52.480;13.354;2023-04-04T12:45:43;8.00;54.40
5027;DHT22;2532;52.480;13.354;2023-04-04T12:48:11;8.10;54.50
5027;DHT22;2532;52.480;13.354;2023-04-04T12:50:52;8.20;53.80
5027;DHT22;2532;52.480;13.354;2023-04-04T12:53:21;8.20;53.40
5027;DHT22;2532;52.480;13.354;2023-04-04T12:55:50;8.10;53.20
5027;DHT22;2532;52.480;13.354;2023-04-04T12:58:20;8.20;53.70
5027;DHT22;2532;52.480;13.354;2023-04-04T13:00:49;8.30;52.60
5027;DHT22;2532;52.480;13.354;2023-04-04T13:03:18;8.30;52.80
5027;DHT22;2532;52.480;13.354;2023-04-04T13:05:45;8.30;51.50
5027;DHT22;2532;52.480;13.354;2023-04-04T13:08:13;8.30;51.20
5027;DHT22;2532;52.480;13.354;2023-04-04T13:11:01;8.30;51.90
5027;DHT22;2532;52.480;13.354;2023-04-04T13:13:36;8.30;52.30
5027;DHT22;2532;52.480;13.354;2023-04-04T13:16:04;8.40;52.40
5027;DHT22;2532;52.480;13.354;2023-04-04T13:18:34;8.40;51.50
5027;DHT22;2532;52.480;13.354;2023-04-04T13:21:02;8.60;52.10
5027;DHT22;2532;52.480;13.354;2023-04-04T13:23:29;8.60;51.10
5027;DHT22;2532;52.480;13.354;2023-04-04T13:25:57;8.70;51.50
5027;DHT22;2532;52.480;13.354;2023-04-04T13:28:26;8.80;51.60
5027;DHT22;2532;52.480;13.354;2023-04-04T13:30:52;8.80;51.40
5027;DHT22;2532;52.480;13.354;2023-04-04T13:33:20;9.00;50.80
5027;DHT22;2532;52.480;13.354;2023-04-04T13:35:48;9.00;49.00
5027;DHT22;2532;52.480;13.354;2023-04-04T13:38:16;9.10;49.60
5027;DHT22;2532;52.480;13.354;2023-04-04T13:40:43;9.20;49.70
5027;DHT22;2532;52.480;13.354;2023-04-04T13:43:10;9.30;49.60
5027;DHT22;2532;52.480;13.354;2023-04-04T13:45:41;9.30;50.10
5027;DHT22;2532;52.480;13.354;2023-04-04T13:48:08;9.50;49.60
5027;DHT22;2532;52.480;13.354;2023-04-04T13:50:37;9.60;49.90
5027;DHT22;2532;52.480;13.354;2023-04-04T13:53:05;9.50;49.10
5027;DHT22;2532;52.480;13.354;2023-04-04T13:55:32;9.40;49.00
5027;DHT22;2532;52.480;13.354;2023-04-04T13:57:59;9.30;48.80
5027;DHT22;2532;52.480;13.354;2023-04-04T14:00:26;9.30;49.40
5027;DHT22;2532;52.480;13.354;2023-04-04T14:02:55;9.30;49.50
5027;DHT22;2532;52.480;13.354;2023-04-04T14:05:23;9.30;49.20
5027;DHT22;2532;52.480;13.354;2023-04-04T14:07:50;9.20;49.00
5027;DHT22;2532;52.480;13.354;2023-04-04T14:10:18;9.10;48.40
5027;DHT22;2532;52.480;13.354;2023-04-04T14:12:45;9.10;48.50
5027;DHT22;2532;52.480;13.354;2023-04-04T14:15:12;9.20;48.70
5027;DHT22;2532;52.480;13.354;2023-04-04T14:17:39;9.20;47.40
5027;DHT22;2532;52.480;13.354;2023-04-04T14:20:08;9.20;47.40
5027;DHT22;2532;52.480;13.354;2023-04-04T14:22:35;9.20;47.50
5027;DHT22;2532;52.480;13.354;2023-04-04T14:25:02;9.00;47.50
5027;DHT22;2532;52.480;13.354;2023-04-04T14:27:29;9.00;47.70
5027;DHT22;2532;52.480;13.354;2023-04-04T14:29:56;8.90;47.20
5027;DHT22;2532;52.480;13.354;2023-04-04T14:32:23;8.90;47.30
5027;DHT22;2532;52.480;13.354;2023-04-04T14:34:51;8.90;47.20
5027;DHT22;2532;52.480;13.354;2023-04-04T14:37:19;9.00;47.40
5027;DHT22;2532;52.480;13.354;2023-04-04T14:39:46;9.00;47.30
5027;DHT22;2532;52.480;13.354;2023-04-04T14:42:13;9.10;46.40
5027;DHT22;2532;52.480;13.354;2023-04-04T14:44:41;9.10;46.00
5027;DHT22;2532;52.480;13.354;2023-04-04T14:47:08;9.10;45.90
5027;DHT22;2532;52.480;13.354;2023-04-04T14:49:35;9.20;46.20
5027;DHT22;2532;52.480;13.354;2023-04-04T14:52:02;9.30;46.10
5027;DHT22;2532;52.480;13.354;2023-04-04T14:54:30;9.40;45.60
5027;DHT22;2532;52.480;13.354;2023-04-04T14:56:57;9.60;46.10
5027;DHT22;2532;52.480;13.354;2023-04-04T14:59:25;9.70;46.10
5027;DHT22;2532;52.480;13.354;2023-04-04T15:01:51;9.90;45.50
5027;DHT22;2532;52.480;13.354;2023-04-04T15:04:21;10.00;44.80
5027;DHT22;2532;52.480;13.354;2023-04-04T15:06:48;10.10;44.40
5027;DHT22;2532;52.480;13.354;2023-04-04T15:09:15;10.20;43.00
5027;DHT22;2532;52.480;13.354;2023-04-04T15:11:44;10.10;43.00
5027;DHT22;2532;52.480;13.354;2023-04-04T15:14:11;10.20;43.40
5027;DHT22;2532;52.480;13.354;2023-04-04T15:16:51;10.30;43.20
5027;DHT22;2532;52.480;13.354;2023-04-04T15:19:32;10.40;42.60
5027;DHT22;2532;52.480;13.354;2023-04-04T15:22:01;10.50;42.60
5027;DHT22;2532;52.480;13.354;2023-04-04T15:24:28;10.50;41.90
5027;DHT22;2532;52.480;13.354;2023-04-04T15:26:56;10.50;42.50
5027;DHT22;2532;52.480;13.354;2023-04-04T15:29:23;10.60;42.10
5027;DHT22;2532;52.480;13.354;2023-04-04T15:31:50;10.60;41.60
5027;DHT22;2532;52.480;13.354;2023-04-04T15:34:17;10.70;41.20
5027;DHT22;2532;52.480;13.354;2023-04-04T15:36:44;10.60;40.70
5027;DHT22;2532;52.480;13.354;2023-04-04T15:39:11;10.50;41.00
5027;DHT22;2532;52.480;13.354;2023-04-04T15:41:38;10.40;41.80
5027;DHT22;2532;52.480;13.354;2023-04-04T15:44:06;10.30;42.40
5027;DHT22;2532;52.480;13.354;2023-04-04T15:46:33;10.10;42.50
5027;DHT22;2532;52.480;13.354;2023-04-04T15:49:01;9.90;44.00
5027;DHT22;2532;52.480;13.354;2023-04-04T15:51:29;9.60;44.70
5027;DHT22;2532;52.480;13.354;2023-04-04T15:53:56;9.40;45.30
5027;DHT22;2532;52.480;13.354;2023-04-04T15:56:23;9.20;45.70
5027;DHT22;2532;52.480;13.354;2023-04-04T15:58:50;9.10;46.20
5027;DHT22;2532;52.480;13.354;2023-04-04T16:01:18;8.90;46.30
5027;DHT22;2532;52.480;13.354;2023-04-04T16:03:45;8.90;46.90
5027;DHT22;2532;52.480;13.354;2023-04-04T16:06:12;8.80;46.70
5027;DHT22;2532;52.480;13.354;2023-04-04T16:08:41;8.70;46.50
5027;DHT22;2532;52.480;13.354;2023-04-04T16:11:08;8.70;47.00
5027;DHT22;2532;52.480;13.354;2023-04-04T16:13:35;8.70;47.10
5027;DHT22;2532;52.480;13.354;2023-04-04T16:16:02;8.70;46.80
5027;DHT22;2532;52.480;13.354;2023-04-04T16:18:34;8.60;46.90
5027;DHT22;2532;52.480;13.354;2023-04-04T16:21:01;8.60;47.10
5027;DHT22;2532;52.480;13.354;2023-04-04T16:23:30;8.50;47.30
5027;DHT22;2532;52.480;13.354;2023-04-04T16:26:00;8.50;47.90
5027;DHT22;2532;52.480;13.354;2023-04-04T16:28:27;8.40;48.20
5027;DHT22;2532;52.480;13.354;2023-04-04T16:30:54;8.40;48.40
5027;DHT22;2532;52.480;13.354;2023-04-04T16:33:21;8.40;48.80
5027;DHT22;2532;52.480;13.354;2023-04-04T16:35:50;8.40;49.00
5027;DHT22;2532;52.480;13.354;2023-04-04T16:38:17;8.40;49.20
5027;DHT22;2532;52.480;13.354;2023-04-04T16:40:44;8.30;49.40
5027;DHT22;2532;52.480;13.354;2023-04-04T16:43:11;8.30;49.80
5027;DHT22;2532;52.480;13.354;2023-04-04T16:45:39;8.30;50.10
5027;DHT22;2532;52.480;13.354;2023-04-04T16:48:06;8.30;50.10
5027;DHT22;2532;52.480;13.354;2023-04-04T16:50:33;8.20;50.50
5027;DHT22;2532;52.480;13.354;2023-04-04T16:53:01;8.20;50.80
5027;DHT22;2532;52.480;13.354;2023-04-04T16:55:28;8.20;51.20
5027;DHT22;2532;52.480;13.354;2023-04-04T16:57:55;8.30;51.50
5027;DHT22;2532;52.480;13.354;2023-04-04T17:00:22;8.30;51.60
5027;DHT22;2532;52.480;13.354;2023-04-04T17:02:49;8.20;51.40
5027;DHT22;2532;52.480;13.354;2023-04-04T17:05:16;8.20;51.60
5027;DHT22;2532;52.480;13.354;2023-04-04T17:07:43;8.20;51.60
5027;DHT22;2532;52.480;13.354;2023-04-04T17:10:12;8.20;51.80
5027;DHT22;2532;52.480;13.354;2023-04-04T17:12:40;8.20;52.00
5027;DHT22;2532;52.480;13.354;2023-04-04T17:15:11;8.30;52.80
5027;DHT22;2532;52.480;13.354;2023-04-04T17:17:38;8.30;52.70
5027;DHT22;2532;52.480;13.354;2023-04-04T17:20:06;8.30;52.40
5027;DHT22;2532;52.480;13.354;2023-04-04T17:22:33;8.30;52.50
5027;DHT22;2532;52.480;13.354;2023-04-04T17:25:00;8.30;52.70
5027;DHT22;2532;52.480;13.354;2023-04-04T17:27:29;8.30;52.80
5027;DHT22;2532;52.480;13.354;2023-04-04T17:29:56;8.30;52.70
5027;DHT22;2532;52.480;13.354;2023-04-04T17:32:23;8.30;52.40
5027;DHT22;2532;52.480;13.354;2023-04-04T17:34:50;8.30;52.60
5027;DHT22;2532;52.480;13.354;2023-04-04T17:37:17;8.30;52.80
5027;DHT22;2532;52.480;13.354;2023-04-04T17:39:44;8.30;53.00
5027;DHT22;2532;52.480;13.354;2023-04-04T17:42:11;8.30;53.10
5027;DHT22;2532;52.480;13.354;2023-04-04T17:44:39;8.30;53.30
5027;DHT22;2532;52.480;13.354;2023-04-04T17:47:10;8.40;53.70
5027;DHT22;2532;52.480;13.354;2023-04-04T17:49:38;8.30;53.90
5027;DHT22;2532;52.480;13.354;2023-04-04T17:52:05;8.30;53.80
5027;DHT22;2532;52.480;13.354;2023-04-04T17:54:38;8.30;54.00
5027;DHT22;2532;52.480;13.354;2023-04-04T17:57:05;8.30;54.10
5027;DHT22;2532;52.480;13.354;2023-04-04T17:59:33;8.20;53.80
5027;DHT22;2532;52.480;13.354;2023-04-04T18:02:01;8.30;53.80
5027;DHT22;2532;52.480;13.354;2023-04-04T18:04:28;8.30;54.10
5027;DHT22;2532;52.480;13.354;2023-04-04T18:06:56;8.30;53.90
5027;DHT22;2532;52.480;13.354;2023-04-04T18:09:23;8.20;53.80
5027;DHT22;2532;52.480;13.354;2023-04-04T18:11:50;8.10;53.70
5027;DHT22;2532;52.480;13.354;2023-04-04T18:14:17;8.10;53.80
5027;DHT22;2532;52.480;13.354;2023-04-04T18:16:45;8.10;54.00
5027;DHT22;2532;52.480;13.354;2023-04-04T18:19:14;8.10;54.40
5027;DHT22;2532;52.480;13.354;2023-04-04T18:21:41;8.00;54.20
5027;DHT22;2532;52.480;13.354;2023-04-04T18:24:08;8.00;54.30
5027;DHT22;2532;52.480;13.354;2023-04-04T18:26:37;8.00;54.60
5027;DHT22;2532;52.480;13.354;2023-04-04T18:29:04;8.00;54.70
5027;DHT22;2532;52.480;13.354;2023-04-04T18:31:31;7.90;54.80
5027;DHT22;2532;52.480;13.354;2023-04-04T18:33:58;8.00;54.90
5027;DHT22;2532;52.480;13.354;2023-04-04T18:36:27;7.90;55.00
5027;DHT22;2532;52.480;13.354;2023-04-04T18:38:54;7.90;55.10
5027;DHT22;2532;52.480;13.354;2023-04-04T18:41:21;7.90;55.30
5027;DHT22;2532;52.480;13.354;2023-04-04T18:43:48;7.90;55.50
5027;DHT22;2532;52.480;13.354;2023-04-04T18:46:15;7.90;55.60
5027;DHT22;2532;52.480;13.354;2023-04-04T18:48:42;7.90;55.60
5027;DHT22;2532;52.480;13.354;2023-04-04T18:51:09;7.90;55.70
5027;DHT22;2532;52.480;13.354;2023-04-04T18:53:38;8.00;55.90
5027;DHT22;2532;52.480;13.354;2023-04-04T18:56:05;8.10;55.90
5027;DHT22;2532;52.480;13.354;2023-04-04T18:58:32;8.00;55.80
5027;DHT22;2532;52.480;13.354;2023-04-04T19:01:02;8.00;55.80
5027;DHT22;2532;52.480;13.354;2023-04-04T19:03:30;8.00;56.00
5027;DHT22;2532;52.480;13.354;2023-04-04T19:06:02;8.00;55.90
5027;DHT22;2532;52.480;13.354;2023-04-04T19:08:31;8.00;56.10
5027;DHT22;2532;52.480;13.354;2023-04-04T19:11:00;7.90;56.00
5027;DHT22;2532;52.480;13.354;2023-04-04T19:13:27;8.00;56.30
5027;DHT22;2532;52.480;13.354;2023-04-04T19:15:55;7.90;56.30
5027;DHT22;2532;52.480;13.354;2023-04-04T19:18:22;7.90;56.40
5027;DHT22;2532;52.480;13.354;2023-04-04T19:20:49;7.90;56.40
5027;DHT22;2532;52.480;13.354;2023-04-04T19:23:16;7.90;56.60
5027;DHT22;2532;52.480;13.354;2023-04-04T19:25:43;7.90;56.80
5027;DHT22;2532;52.480;13.354;2023-04-04T19:28:11;7.80;56.70
5027;DHT22;2532;52.480;13.354;2023-04-04T19:30:41;7.80;56.80
5027;DHT22;2532;52.480;13.354;2023-04-04T19:33:09;7.80;56.70
5027;DHT22;2532;52.480;13.354;2023-04-04T19:35:50;7.80;56.80
5027;DHT22;2532;52.480;13.354;2023-04-04T19:38:22;7.80;57.50
5027;DHT22;2532;52.480;13.354;2023-04-04T19:40:50;7.80;57.10
5027;DHT22;2532;52.480;13.354;2023-04-04T19:43:20;7.80;56.90
5027;DHT22;2532;52.480;13.354;2023-04-04T19:45:48;7.80;56.90
5027;DHT22;2532;52.480;13.354;2023-04-04T19:48:35;7.70;56.90
5027;DHT22;2532;52.480;13.354;2023-04-04T19:51:06;7.70;57.00
5027;DHT22;2532;52.480;13.354;2023-04-04T19:53:33;7.70;57.10
5027;DHT22;2532;52.480;13.354;2023-04-04T19:56:02;7.70;57.30
5027;DHT22;2532;52.480;13.354;2023-04-04T19:58:33;7.70;57.40
5027;DHT22;2532;52.480;13.354;2023-04-04T20:01:01;7.70;57.40
5027;DHT22;2532;52.480;13.354;2023-04-04T20:03:29;7.70;57.30
5027;DHT22;2532;52.480;13.354;2023-04-04T20:06:09;7.60;57.30
5027;DHT22;2532;52.480;13.354;2023-04-04T20:08:38;7.60;57.70
5027;DHT22;2532;52.480;13.354;2023-04-04T20:11:06;7.60;57.70